Time;durP1;ratioP1;P1;durP2;ratioP2;P2;SDS_P1;SDS_P2;PMS_P1;PMS_P2;Temp;Humidity;BMP_temperature;BMP_pressure;BME280_temperature;BME280_humidity;BME280_pressure;Samples;Min_cycle;Max_cycle;Signal;HPM_P1;HPM_P2
2021/07/13 00:01:03;;;;;;;7.15;4.30;;;;;;;;;;4404635;32;20769;-54
2021/07/13 00:03:29;;;;;;;4.95;4.15;;;;;;;;;;4403945;32;20305;-55
2021/07/13 00:05:54;;;;;;;9.35;4.85;;;;;;;;;;4404507;32;20280;-54
2021/07/13 00:08:20;;;;;;;9.20;4.93;;;;;;;;;;4398569;32;20229;-55
2021/07/13 00:10:45;;;;;;;9.90;6.00;;;;;;;;;;4389206;32;20238;-54
2021/07/13 00:13:11;;;;;;;6.50;5.45;;;;;;;;;;4389008;32;20241;-54
2021/07/13 00:15:39;;;;;;;7.97;5.05;;;;;;;;;;4389157;32;20818;-55
2021/07/13 00:18:05;;;;;;;8.65;4.97;;;;;;;;;;4388736;32;20256;-54
2021/07/13 00:20:32;;;;;;;6.68;5.35;;;;;;;;;;4399791;32;20771;-54
2021/07/13 00:22:57;;;;;;;6.97;4.72;;;;;;;;;;4404311;32;20292;-54
2021/07/13 00:25:24;;;;;;;6.60;5.15;;;;;;;;;;4404178;32;20270;-55
2021/07/13 00:27:50;;;;;;;6.32;4.60;;;;;;;;;;4404020;32;20874;-55
2021/07/13 00:30:17;;;;;;;5.03;4.53;;;;;;;;;;4402585;32;20290;-55
2021/07/13 00:32:43;;;;;;;11.02;5.68;;;;;;;;;;4403673;32;20233;-55
2021/07/13 00:35:09;;;;;;;5.87;4.60;;;;;;;;;;4403754;32;20248;-55
2021/07/13 00:37:35;;;;;;;5.18;4.65;;;;;;;;;;4403642;32;20621;-55
2021/07/13 00:40:00;;;;;;;6.35;4.93;;;;;;;;;;4403628;32;20249;-55
2021/07/13 00:42:26;;;;;;;7.00;4.62;;;;;;;;;;4404177;32;20571;-55
2021/07/13 00:44:52;;;;;;;7.28;4.57;;;;;;;;;;4403683;32;20248;-54
2021/07/13 00:47:20;;;;;;;8.88;5.00;;;;;;;;;;4403862;32;20273;-55
2021/07/13 00:49:46;;;;;;;6.82;4.95;;;;;;;;;;4403526;32;20244;-54
2021/07/13 00:52:12;;;;;;;8.27;5.47;;;;;;;;;;4403784;32;20806;-55
2021/07/13 00:54:39;;;;;;;8.02;5.65;;;;;;;;;;4403689;32;20336;-54
2021/07/13 00:57:12;;;;;;;8.30;4.62;;;;;;;;;;4403639;32;20209;-55
2021/07/13 00:59:38;;;;;;;6.45;5.45;;;;;;;;;;4403511;32;20308;-55
2021/07/13 01:02:05;;;;;;;5.37;4.85;;;;;;;;;;4402570;32;20285;-55
2021/07/13 01:04:32;;;;;;;9.30;4.80;;;;;;;;;;4403359;32;20247;-55
2021/07/13 01:07:03;;;;;;;7.60;5.68;;;;;;;;;;4403686;32;20339;-55
2021/07/13 01:09:57;;;;;;;7.30;5.12;;;;;;;;;;4402611;32;20614;-54
2021/07/13 01:12:46;;;;;;;6.93;4.47;;;;;;;;;;4403865;32;20278;-55
2021/07/13 01:15:15;;;;;;;5.47;4.82;;;;;;;;;;4403245;32;20240;-54
2021/07/13 01:17:48;;;;;;;7.95;5.05;;;;;;;;;;4403113;32;20237;-54
2021/07/13 01:20:50;;;;;;;6.62;4.82;;;;;;;;;;4403179;32;20614;-54
2021/07/13 01:23:27;;;;;;;5.15;4.12;;;;;;;;;;4403253;32;20657;-54
2021/07/13 01:26:10;;;;;;;5.10;4.60;;;;;;;;;;4403363;32;20223;-54
2021/07/13 01:28:43;;;;;;;9.23;4.47;;;;;;;;;;4403218;32;20217;-55
2021/07/13 01:31:16;;;;;;;5.90;4.40;;;;;;;;;;4402773;32;20302;-55
2021/07/13 01:33:47;;;;;;;5.10;4.53;;;;;;;;;;4402820;32;20221;-55
2021/07/13 01:36:27;;;;;;;5.25;4.32;;;;;;;;;;4403314;32;20233;-55
2021/07/13 01:38:54;;;;;;;5.37;4.87;;;;;;;;;;4403064;32;20248;-54
2021/07/13 01:41:24;;;;;;;6.32;5.25;;;;;;;;;;4403403;32;20725;-54
2021/07/13 01:43:50;;;;;;;6.45;4.68;;;;;;;;;;4402989;32;20672;-54
2021/07/13 01:46:17;;;;;;;5.72;4.65;;;;;;;;;;4403181;32;20224;-54
2021/07/13 01:48:45;;;;;;;7.37;5.47;;;;;;;;;;4402563;32;20252;-55
2021/07/13 01:51:12;;;;;;;11.18;4.68;;;;;;;;;;4403163;32;20745;-55
2021/07/13 01:53:38;;;;;;;12.50;5.12;;;;;;;;;;4402693;32;20359;-55
2021/07/13 01:56:05;;;;;;;6.68;4.62;;;;;;;;;;4402802;32;20279;-56
2021/07/13 01:58:32;;;;;;;6.57;4.85;;;;;;;;;;4402155;32;20653;-55
2021/07/13 02:01:04;;;;;;;9.00;5.37;;;;;;;;;;4402670;32;20308;-56
2021/07/13 02:03:30;;;;;;;7.87;4.37;;;;;;;;;;4402492;32;20249;-55
2021/07/13 02:05:57;;;;;;;9.40;4.65;;;;;;;;;;4402829;32;20643;-55
2021/07/13 02:08:24;;;;;;;8.35;5.45;;;;;;;;;;4396351;32;20226;-56
2021/07/13 02:10:50;;;;;;;6.62;5.00;;;;;;;;;;4387309;32;20642;-55
2021/07/13 02:13:20;;;;;;;8.90;5.32;;;;;;;;;;4385895;32;20401;-55
2021/07/13 02:15:46;;;;;;;6.75;4.55;;;;;;;;;;4373749;32;20260;-55
2021/07/13 02:18:13;;;;;;;6.07;4.62;;;;;;;;;;4386935;32;20281;-55
2021/07/13 02:20:39;;;;;;;7.35;5.00;;;;;;;;;;4398650;32;20214;-55
2021/07/13 02:23:06;;;;;;;6.22;5.62;;;;;;;;;;4402209;32;20309;-54
2021/07/13 02:25:32;;;;;;;6.40;5.07;;;;;;;;;;4402067;32;20375;-54
2021/07/13 02:28:13;;;;;;;5.45;4.75;;;;;;;;;;4402128;32;20237;-55
2021/07/13 02:30:41;;;;;;;8.07;5.95;;;;;;;;;;4402165;32;20316;-55
2021/07/13 02:33:14;;;;;;;7.18;5.60;;;;;;;;;;4402060;32;20292;-54
2021/07/13 02:35:48;;;;;;;8.70;5.80;;;;;;;;;;4402139;32;20652;-55
2021/07/13 02:38:14;;;;;;;7.43;4.93;;;;;;;;;;4402064;32;20294;-55
2021/07/13 02:40:40;;;;;;;5.80;4.85;;;;;;;;;;4402044;32;20283;-55
2021/07/13 02:43:06;;;;;;;5.78;4.90;;;;;;;;;;4402072;32;20263;-54
2021/07/13 02:45:34;;;;;;;9.40;4.97;;;;;;;;;;4401992;32;20237;-54
2021/07/13 02:48:00;;;;;;;8.73;5.00;;;;;;;;;;4401964;32;20198;-55
2021/07/13 02:50:28;;;;;;;8.95;5.75;;;;;;;;;;4402031;32;20297;-55
2021/07/13 02:52:54;;;;;;;9.93;6.32;;;;;;;;;;4401985;32;20224;-55
2021/07/13 02:55:22;;;;;;;10.57;6.57;;;;;;;;;;4400900;32;20326;-55
2021/07/13 02:57:50;;;;;;;8.93;6.95;;;;;;;;;;4402202;32;20206;-54
2021/07/13 03:00:18;;;;;;;15.35;6.18;;;;;;;;;;4402155;32;20360;-54
2021/07/13 03:02:48;;;;;;;7.30;5.80;;;;;;;;;;4401915;32;20266;-54
2021/07/13 03:05:16;;;;;;;5.30;4.70;;;;;;;;;;4401990;32;20269;-55
2021/07/13 03:07:43;;;;;;;7.70;5.82;;;;;;;;;;4401361;32;20249;-55
2021/07/13 03:10:10;;;;;;;9.32;5.70;;;;;;;;;;4403446;32;20229;-56
2021/07/13 03:12:36;;;;;;;8.25;5.68;;;;;;;;;;4405210;32;21207;-54
2021/07/13 03:15:03;;;;;;;10.35;6.68;;;;;;;;;;4404926;32;20268;-55
2021/07/13 03:17:29;;;;;;;9.70;6.62;;;;;;;;;;4405022;32;20209;-55
2021/07/13 03:19:54;;;;;;;6.87;5.55;;;;;;;;;;4404850;32;20263;-54
2021/07/13 03:22:34;;;;;;;9.55;6.05;;;;;;;;;;4404845;32;20276;-56
2021/07/13 03:25:01;;;;;;;6.85;5.55;;;;;;;;;;4389512;32;20357;-54
2021/07/13 03:27:29;;;;;;;9.35;6.45;;;;;;;;;;4389850;32;20209;-54
2021/07/13 03:29:56;;;;;;;5.87;5.28;;;;;;;;;;4389524;32;20233;-54
2021/07/13 03:32:23;;;;;;;14.93;6.93;;;;;;;;;;4402308;32;20332;-55
2021/07/13 03:34:50;;;;;;;9.63;5.82;;;;;;;;;;4403465;32;20272;-54
2021/07/13 03:37:17;;;;;;;9.95;6.15;;;;;;;;;;4404563;32;20233;-54
2021/07/13 03:39:43;;;;;;;10.07;6.80;;;;;;;;;;4404678;32;20265;-55
2021/07/13 03:42:08;;;;;;;10.40;6.55;;;;;;;;;;4405088;32;20786;-54
2021/07/13 03:44:34;;;;;;;8.50;6.15;;;;;;;;;;4404702;32;20253;-54
2021/07/13 03:47:00;;;;;;;9.68;6.12;;;;;;;;;;4404328;32;20289;-56
2021/07/13 03:49:26;;;;;;;12.90;6.62;;;;;;;;;;4404443;32;20222;-55
2021/07/13 03:51:52;;;;;;;7.25;5.60;;;;;;;;;;4404538;32;20243;-55
2021/07/13 03:54:20;;;;;;;8.77;5.57;;;;;;;;;;4404489;32;20630;-55
2021/07/13 03:56:49;;;;;;;10.38;6.20;;;;;;;;;;4404605;32;20206;-54
2021/07/13 03:59:16;;;;;;;15.82;6.50;;;;;;;;;;4404540;32;20263;-55
2021/07/13 04:01:42;;;;;;;8.45;6.45;;;;;;;;;;4404332;32;20258;-55
2021/07/13 04:04:07;;;;;;;8.23;5.82;;;;;;;;;;4404582;32;20245;-54
2021/07/13 04:06:33;;;;;;;8.13;5.82;;;;;;;;;;4404593;32;20695;-54
2021/07/13 04:09:00;;;;;;;11.32;6.05;;;;;;;;;;4394470;32;20675;-54
2021/07/13 04:11:26;;;;;;;6.53;5.55;;;;;;;;;;4389575;32;20245;-55
2021/07/13 04:13:51;;;;;;;6.53;5.40;;;;;;;;;;4388887;32;20239;-53
2021/07/13 04:16:17;;;;;;;9.70;5.57;;;;;;;;;;4389260;32;20305;-53
2021/07/13 04:18:43;;;;;;;9.45;6.05;;;;;;;;;;4388701;32;20276;-54
2021/07/13 04:21:08;;;;;;;10.10;6.22;;;;;;;;;;4402923;32;20333;-55
2021/07/13 04:23:35;;;;;;;9.32;6.28;;;;;;;;;;4404266;32;20225;-54
2021/07/13 04:26:00;;;;;;;10.70;7.25;;;;;;;;;;4402736;32;20317;-55
2021/07/13 04:28:31;;;;;;;6.72;5.50;;;;;;;;;;4404094;32;20213;-55
2021/07/13 04:31:00;;;;;;;10.30;5.30;;;;;;;;;;4402683;32;20232;-55
2021/07/13 04:33:26;;;;;;;9.02;6.18;;;;;;;;;;4404195;32;20257;-55
2021/07/13 04:35:52;;;;;;;10.52;6.90;;;;;;;;;;4403796;32;20330;-56
2021/07/13 04:38:18;;;;;;;13.75;7.25;;;;;;;;;;4403754;32;20230;-54
2021/07/13 04:40:44;;;;;;;7.95;5.75;;;;;;;;;;4404061;32;20318;-54
2021/07/13 04:43:09;;;;;;;6.47;5.37;;;;;;;;;;4404010;32;20315;-55
2021/07/13 04:45:35;;;;;;;7.87;5.95;;;;;;;;;;4403894;32;21055;-55
2021/07/13 04:48:00;;;;;;;9.90;6.75;;;;;;;;;;4403847;32;20282;-55
2021/07/13 04:50:26;;;;;;;8.10;5.70;;;;;;;;;;4403676;32;20617;-55
2021/07/13 04:52:51;;;;;;;8.70;6.20;;;;;;;;;;4403549;32;20193;-55
2021/07/13 04:55:17;;;;;;;7.68;5.37;;;;;;;;;;4403527;32;20423;-55
2021/07/13 04:57:46;;;;;;;14.20;6.22;;;;;;;;;;4403732;32;20435;-55
2021/07/13 05:00:13;;;;;;;9.05;5.65;;;;;;;;;;4403824;32;20274;-55
2021/07/13 05:02:39;;;;;;;7.90;5.60;;;;;;;;;;4403923;32;20547;-54
2021/07/13 05:05:06;;;;;;;10.48;6.07;;;;;;;;;;4403950;32;20269;-55
2021/07/13 05:07:32;;;;;;;10.35;5.95;;;;;;;;;;4401671;32;20234;-55
2021/07/13 05:09:58;;;;;;;8.60;6.50;;;;;;;;;;4403724;32;20726;-55
2021/07/13 05:12:23;;;;;;;7.97;6.20;;;;;;;;;;4403530;32;20303;-55
2021/07/13 05:14:49;;;;;;;9.73;6.72;;;;;;;;;;4403523;32;20251;-55
2021/07/13 05:17:14;;;;;;;7.30;5.70;;;;;;;;;;4403194;32;20311;-55
2021/07/13 05:19:43;;;;;;;6.93;6.25;;;;;;;;;;4403412;32;20261;-55
2021/07/13 05:22:10;;;;;;;7.40;6.10;;;;;;;;;;4403110;32;20687;-55
2021/07/13 05:24:36;;;;;;;7.72;6.28;;;;;;;;;;4403309;32;20791;-55
2021/07/13 05:27:01;;;;;;;9.77;7.40;;;;;;;;;;4402008;32;20335;-55
2021/07/13 05:29:27;;;;;;;6.95;6.25;;;;;;;;;;4402168;32;20744;-55
2021/07/13 05:31:52;;;;;;;9.15;6.30;;;;;;;;;;4400412;32;20326;-54
2021/07/13 05:34:18;;;;;;;8.45;6.57;;;;;;;;;;4395748;32;20532;-54
2021/07/13 05:36:44;;;;;;;17.37;7.20;;;;;;;;;;4393359;32;20289;-55
2021/07/13 05:39:10;;;;;;;8.60;6.95;;;;;;;;;;4396980;32;20237;-55
2021/07/13 05:41:36;;;;;;;13.55;8.40;;;;;;;;;;4397905;32;20314;-55
2021/07/13 05:44:02;;;;;;;10.93;7.80;;;;;;;;;;4372625;32;20250;-55
2021/07/13 05:46:28;;;;;;;10.88;6.72;;;;;;;;;;4389123;32;20331;-55
2021/07/13 05:48:53;;;;;;;16.50;6.97;;;;;;;;;;4399241;32;20244;-55
2021/07/13 05:51:19;;;;;;;10.32;7.60;;;;;;;;;;4395958;32;20308;-55
2021/07/13 05:53:45;;;;;;;13.70;8.48;;;;;;;;;;4400491;32;20279;-55
2021/07/13 05:56:11;;;;;;;12.55;7.57;;;;;;;;;;4398035;32;20292;-56
2021/07/13 05:58:38;;;;;;;10.18;7.62;;;;;;;;;;4402940;32;20229;-54
2021/07/13 06:01:05;;;;;;;14.20;8.57;;;;;;;;;;4401359;32;20295;-54
2021/07/13 06:03:31;;;;;;;9.80;7.60;;;;;;;;;;4401952;32;20214;-54
2021/07/13 06:05:56;;;;;;;10.07;6.97;;;;;;;;;;4400882;32;20386;-55
2021/07/13 06:08:22;;;;;;;15.52;7.97;;;;;;;;;;4386796;32;20216;-56
2021/07/13 06:10:47;;;;;;;12.73;7.22;;;;;;;;;;4386812;32;20773;-55
2021/07/13 06:13:13;;;;;;;9.88;6.70;;;;;;;;;;4397384;32;20249;-55
2021/07/13 06:15:38;;;;;;;15.77;8.07;;;;;;;;;;4401960;32;20267;-54
2021/07/13 06:18:04;;;;;;;9.88;7.85;;;;;;;;;;4402143;32;20251;-55
2021/07/13 06:20:30;;;;;;;10.57;6.90;;;;;;;;;;4401482;32;20287;-55
2021/07/13 06:22:55;;;;;;;8.65;6.53;;;;;;;;;;4402042;32;20267;-54
2021/07/13 06:25:21;;;;;;;8.52;6.43;;;;;;;;;;4401838;32;20669;-55
2021/07/13 06:27:46;;;;;;;8.13;6.80;;;;;;;;;;4401697;32;20288;-53
2021/07/13 06:30:13;;;;;;;9.02;6.68;;;;;;;;;;4401639;32;20272;-53
2021/07/13 06:32:39;;;;;;;8.63;7.53;;;;;;;;;;4386886;32;20224;-54
2021/07/13 06:35:05;;;;;;;12.48;7.62;;;;;;;;;;4386652;32;20422;-54
2021/07/13 06:37:31;;;;;;;11.93;8.40;;;;;;;;;;4396718;32;20248;-53
2021/07/13 06:39:56;;;;;;;10.23;7.10;;;;;;;;;;4401843;32;20319;-53
2021/07/13 06:42:22;;;;;;;10.85;7.12;;;;;;;;;;4401651;32;20587;-54
2021/07/13 06:44:47;;;;;;;16.83;6.82;;;;;;;;;;4400298;32;20249;-54
2021/07/13 06:47:13;;;;;;;14.57;8.35;;;;;;;;;;4392207;32;20347;-53
2021/07/13 06:49:38;;;;;;;10.30;7.28;;;;;;;;;;4386835;32;20268;-55
2021/07/13 06:52:04;;;;;;;8.55;6.93;;;;;;;;;;4386628;32;20226;-54
2021/07/13 06:54:29;;;;;;;8.82;6.97;;;;;;;;;;4393319;32;20233;-54
2021/07/13 06:56:55;;;;;;;11.60;8.38;;;;;;;;;;4401762;32;20707;-54
2021/07/13 06:59:20;;;;;;;10.38;7.65;;;;;;;;;;4401790;32;20217;-55
2021/07/13 07:01:46;;;;;;;8.23;7.00;;;;;;;;;;4401754;32;20285;-54
2021/07/13 07:04:11;;;;;;;9.57;6.82;;;;;;;;;;4401954;32;20213;-53
2021/07/13 07:06:37;;;;;;;19.98;8.57;;;;;;;;;;4402155;32;20284;-54
2021/07/13 07:09:03;;;;;;;10.35;7.12;;;;;;;;;;4401701;32;20225;-53
2021/07/13 07:11:28;;;;;;;9.40;7.53;;;;;;;;;;4401935;32;20391;-54
2021/07/13 07:13:54;;;;;;;10.02;8.15;;;;;;;;;;4401707;32;20629;-54
2021/07/13 07:16:19;;;;;;;8.98;6.75;;;;;;;;;;4402066;32;20298;-54
2021/07/13 07:18:45;;;;;;;9.63;7.60;;;;;;;;;;4401491;32;20271;-53
2021/07/13 07:21:11;;;;;;;7.87;6.70;;;;;;;;;;4399784;32;20314;-54
2021/07/13 07:23:37;;;;;;;11.12;7.37;;;;;;;;;;4401641;32;20732;-54
2021/07/13 07:26:03;;;;;;;9.10;7.57;;;;;;;;;;4402524;32;20217;-54
2021/07/13 07:28:29;;;;;;;11.07;7.85;;;;;;;;;;4401714;32;20241;-54
2021/07/13 07:30:55;;;;;;;10.50;8.25;;;;;;;;;;4401930;32;20213;-54
2021/07/13 07:33:20;;;;;;;9.82;6.20;;;;;;;;;;4401707;32;20242;-53
2021/07/13 07:35:45;;;;;;;9.63;7.37;;;;;;;;;;4402255;32;20229;-53
2021/07/13 07:38:12;;;;;;;8.93;6.53;;;;;;;;;;4401717;32;20244;-53
2021/07/13 07:40:38;;;;;;;9.95;7.30;;;;;;;;;;4401742;32;20280;-54
2021/07/13 07:43:03;;;;;;;10.77;8.07;;;;;;;;;;4401628;32;20202;-53
2021/07/13 07:45:29;;;;;;;8.52;7.12;;;;;;;;;;4401394;32;20609;-53
2021/07/13 07:47:55;;;;;;;10.35;6.72;;;;;;;;;;4387758;32;20304;-53
2021/07/13 07:50:23;;;;;;;9.85;7.15;;;;;;;;;;4390917;32;20314;-54
2021/07/13 07:52:49;;;;;;;11.77;7.05;;;;;;;;;;4401843;32;20206;-55
2021/07/13 07:55:15;;;;;;;12.45;7.10;;;;;;;;;;4390137;32;20560;-55
2021/07/13 07:57:41;;;;;;;9.60;7.22;;;;;;;;;;4389004;32;20253;-54
2021/07/13 08:00:09;;;;;;;7.72;6.32;;;;;;;;;;4389155;32;20336;-53
2021/07/13 08:02:35;;;;;;;8.25;5.72;;;;;;;;;;4389074;32;20532;-54
2021/07/13 08:05:00;;;;;;;9.50;6.40;;;;;;;;;;4388945;32;20282;-54
2021/07/13 08:07:27;;;;;;;8.15;6.32;;;;;;;;;;4389326;32;20303;-54
2021/07/13 08:09:52;;;;;;;7.40;6.57;;;;;;;;;;4395314;32;20301;-54
2021/07/13 08:12:18;;;;;;;10.75;7.57;;;;;;;;;;4403500;32;20264;-53
2021/07/13 08:14:43;;;;;;;7.03;6.20;;;;;;;;;;4404093;32;20570;-53
2021/07/13 08:17:09;;;;;;;8.23;6.00;;;;;;;;;;4403895;32;20264;-54
2021/07/13 08:19:38;;;;;;;6.93;6.00;;;;;;;;;;4403905;32;20305;-54
2021/07/13 08:22:06;;;;;;;8.13;6.95;;;;;;;;;;4404073;32;20202;-54
2021/07/13 08:24:31;;;;;;;7.70;6.85;;;;;;;;;;4404230;32;20249;-54
2021/07/13 08:26:56;;;;;;;6.97;6.15;;;;;;;;;;4403618;32;20316;-53
2021/07/13 08:29:22;;;;;;;7.50;6.25;;;;;;;;;;4403555;32;20675;-53
2021/07/13 08:31:47;;;;;;;9.32;6.80;;;;;;;;;;4403453;32;20652;-53
2021/07/13 08:34:13;;;;;;;9.52;6.93;;;;;;;;;;4404317;32;20586;-52
2021/07/13 08:36:39;;;;;;;8.00;6.72;;;;;;;;;;4404061;32;20327;-54
2021/07/13 08:39:05;;;;;;;7.50;6.03;;;;;;;;;;4403695;32;20642;-54
2021/07/13 08:41:31;;;;;;;7.78;6.97;;;;;;;;;;4404120;32;20290;-56
2021/07/13 08:43:58;;;;;;;10.63;6.95;;;;;;;;;;4403453;32;20422;-54
2021/07/13 08:46:25;;;;;;;8.00;6.30;;;;;;;;;;4403813;32;20243;-55
2021/07/13 08:48:53;;;;;;;6.97;6.30;;;;;;;;;;4404306;32;20217;-54
2021/07/13 08:51:19;;;;;;;8.65;6.32;;;;;;;;;;4403792;32;20313;-55
2021/07/13 08:53:44;;;;;;;8.20;6.62;;;;;;;;;;4403485;32;20213;-53
2021/07/13 08:56:10;;;;;;;7.00;6.30;;;;;;;;;;4403690;32;20652;-56
2021/07/13 08:58:35;;;;;;;8.70;6.97;;;;;;;;;;4403541;32;20283;-54
2021/07/13 09:01:01;;;;;;;8.38;6.43;;;;;;;;;;4404155;32;20342;-55
2021/07/13 09:03:30;;;;;;;7.95;6.97;;;;;;;;;;4402468;32;20355;-55
2021/07/13 09:05:57;;;;;;;6.75;5.95;;;;;;;;;;4403173;32;20218;-54
2021/07/13 09:08:25;;;;;;;8.63;6.28;;;;;;;;;;4402357;32;20214;-55
2021/07/13 09:11:17;;;;;;;8.90;6.82;;;;;;;;;;4402966;32;20190;-54
2021/07/13 09:13:53;;;;;;;9.70;6.50;;;;;;;;;;4388383;32;20249;-53
2021/07/13 09:16:30;;;;;;;8.93;6.62;;;;;;;;;;4388681;32;20297;-54
2021/07/13 09:18:58;;;;;;;12.45;7.65;;;;;;;;;;4388456;32;20246;-54
2021/07/13 09:21:35;;;;;;;11.35;7.75;;;;;;;;;;4386539;32;20256;-54
2021/07/13 09:24:09;;;;;;;9.35;6.45;;;;;;;;;;4388000;32;20317;-55
2021/07/13 09:26:58;;;;;;;7.72;6.07;;;;;;;;;;4388839;32;20375;-54
2021/07/13 09:29:37;;;;;;;6.97;6.28;;;;;;;;;;4388451;32;20203;-55
2021/07/13 09:32:32;;;;;;;9.10;6.80;;;;;;;;;;4399626;32;20222;-54
2021/07/13 09:35:01;;;;;;;9.85;6.28;;;;;;;;;;4403874;32;20296;-53
2021/07/13 09:37:43;;;;;;;10.95;6.80;;;;;;;;;;4403701;32;20816;-53
2021/07/13 09:40:12;;;;;;;6.72;5.47;;;;;;;;;;4403581;32;20600;-53
2021/07/13 09:42:47;;;;;;;8.07;6.28;;;;;;;;;;4403748;32;20619;-54
2021/07/13 09:45:28;;;;;;;7.15;5.97;;;;;;;;;;4402506;32;20339;-54
2021/07/13 09:47:55;;;;;;;7.32;6.62;;;;;;;;;;4401188;32;20225;-53
2021/07/13 09:50:32;;;;;;;7.62;6.62;;;;;;;;;;4402754;32;20237;-55
2021/07/13 09:53:02;;;;;;;8.02;7.03;;;;;;;;;;4403094;32;20198;-53
2021/07/13 09:55:28;;;;;;;7.78;6.97;;;;;;;;;;4389140;32;20277;-55
2021/07/13 09:58:06;;;;;;;12.77;6.90;;;;;;;;;;4386876;32;20256;-55
2021/07/13 10:00:32;;;;;;;8.30;6.15;;;;;;;;;;4387428;32;20186;-54
2021/07/13 10:02:58;;;;;;;9.70;7.32;;;;;;;;;;4387078;32;20256;-55
2021/07/13 10:05:24;;;;;;;7.00;6.28;;;;;;;;;;4387462;32;20597;-55
2021/07/13 10:07:50;;;;;;;7.60;5.93;;;;;;;;;;4387281;32;20205;-54
2021/07/13 10:10:16;;;;;;;7.18;5.65;;;;;;;;;;4387397;32;20260;-55
2021/07/13 10:12:42;;;;;;;8.75;6.03;;;;;;;;;;4397520;32;20733;-55
2021/07/13 10:15:07;;;;;;;8.48;6.32;;;;;;;;;;4402646;32;20288;-53
2021/07/13 10:17:33;;;;;;;9.23;6.03;;;;;;;;;;4402100;32;20336;-54
2021/07/13 10:20:10;;;;;;;9.18;5.82;;;;;;;;;;4401537;32;20638;-54
2021/07/13 10:22:41;;;;;;;6.75;6.15;;;;;;;;;;4402697;32;20217;-55
2021/07/13 10:25:08;;;;;;;6.82;5.82;;;;;;;;;;4402238;32;20883;-54
2021/07/13 10:27:41;;;;;;;6.55;5.75;;;;;;;;;;4402113;32;20260;-53
2021/07/13 10:30:27;;;;;;;6.43;5.60;;;;;;;;;;4402348;32;20246;-55
2021/07/13 10:32:53;;;;;;;6.68;5.25;;;;;;;;;;4385786;32;20236;-53
2021/07/13 10:35:23;;;;;;;6.87;6.18;;;;;;;;;;4385820;32;20213;-55
2021/07/13 10:37:53;;;;;;;5.68;5.00;;;;;;;;;;4388710;32;20351;-55
2021/07/13 10:40:24;;;;;;;6.55;5.40;;;;;;;;;;4397925;32;20194;-53
2021/07/13 10:42:51;;;;;;;7.15;5.87;;;;;;;;;;4401034;32;20988;-54
2021/07/13 10:45:29;;;;;;;5.90;5.28;;;;;;;;;;4401209;32;20245;-55
2021/07/13 10:47:57;;;;;;;9.70;6.57;;;;;;;;;;4401857;32;20570;-54
2021/07/13 10:50:23;;;;;;;7.82;6.68;;;;;;;;;;4402373;32;20210;-55
2021/07/13 10:53:15;;;;;;;6.07;5.47;;;;;;;;;;4402879;32;20269;-55
2021/07/13 10:55:40;;;;;;;5.75;5.25;;;;;;;;;;4402219;32;20280;-55
2021/07/13 10:58:09;;;;;;;8.32;5.78;;;;;;;;;;4402481;32;20213;-54
2021/07/13 11:00:50;;;;;;;5.40;4.90;;;;;;;;;;4400648;32;20256;-54
2021/07/13 11:03:31;;;;;;;5.80;5.20;;;;;;;;;;4402297;32;20233;-55
2021/07/13 11:06:00;;;;;;;7.07;4.95;;;;;;;;;;4402375;32;20567;-54
2021/07/13 11:08:41;;;;;;;8.18;5.93;;;;;;;;;;4400976;32;20249;-54
2021/07/13 11:14:05;;;;;;;6.85;5.93;;;;;;;;;;4402327;32;20249;-55
2021/07/13 11:16:37;;;;;;;6.97;5.43;;;;;;;;;;4401674;32;20205;-54
2021/07/13 11:19:20;;;;;;;7.10;6.15;;;;;;;;;;4402628;32;20279;-54
2021/07/13 11:21:47;;;;;;;9.32;5.53;;;;;;;;;;4403303;32;20610;-54
2021/07/13 11:24:18;;;;;;;14.15;5.95;;;;;;;;;;4402863;32;20333;-55
2021/07/13 11:26:49;;;;;;;7.07;6.00;;;;;;;;;;4403119;32;20216;-55
2021/07/13 11:29:21;;;;;;;8.55;6.12;;;;;;;;;;4402943;32;20263;-55
2021/07/13 11:32:09;;;;;;;8.25;6.65;;;;;;;;;;4404962;32;20281;-54
2021/07/13 11:34:37;;;;;;;6.15;5.20;;;;;;;;;;4405694;32;20293;-54
2021/07/13 11:37:04;;;;;;;7.93;5.68;;;;;;;;;;4405067;32;20255;-55
2021/07/13 11:39:32;;;;;;;7.40;5.45;;;;;;;;;;4405897;32;20711;-54
2021/07/13 11:42:06;;;;;;;6.32;5.30;;;;;;;;;;4405559;32;20292;-55
2021/07/13 11:44:32;;;;;;;7.62;5.53;;;;;;;;;;4405437;32;20252;-55
2021/07/13 11:46:57;;;;;;;8.13;5.28;;;;;;;;;;4404244;32;20704;-55
2021/07/13 11:49:25;;;;;;;5.90;4.97;;;;;;;;;;4404837;32;20233;-55
2021/07/13 11:52:00;;;;;;;9.48;5.28;;;;;;;;;;4404672;32;20205;-55
2021/07/13 11:54:31;;;;;;;6.78;5.43;;;;;;;;;;4397429;32;20697;-55
2021/07/13 11:56:58;;;;;;;6.60;5.12;;;;;;;;;;4389102;32;20181;-55
2021/07/13 11:59:27;;;;;;;7.07;6.07;;;;;;;;;;4388876;32;20279;-55
2021/07/13 12:02:02;;;;;;;5.82;5.22;;;;;;;;;;4389538;32;20231;-56
2021/07/13 12:04:29;;;;;;;7.30;5.78;;;;;;;;;;4389309;32;20603;-55
2021/07/13 12:06:57;;;;;;;6.47;5.78;;;;;;;;;;4390234;32;20233;-55
2021/07/13 12:09:27;;;;;;;6.40;5.65;;;;;;;;;;4389579;32;20253;-55
2021/07/13 12:11:58;;;;;;;11.00;5.75;;;;;;;;;;4394765;32;20328;-54
2021/07/13 12:14:25;;;;;;;6.32;5.72;;;;;;;;;;4404303;32;20233;-55
2021/07/13 12:16:54;;;;;;;8.70;6.30;;;;;;;;;;4403823;32;20254;-56
2021/07/13 12:19:22;;;;;;;7.03;5.72;;;;;;;;;;4403777;32;20288;-57
2021/07/13 12:21:50;;;;;;;5.82;5.28;;;;;;;;;;4404068;32;20268;-54
2021/07/13 12:24:19;;;;;;;6.22;5.53;;;;;;;;;;4403984;32;20240;-55
2021/07/13 12:26:49;;;;;;;7.12;5.93;;;;;;;;;;4403565;32;20232;-55
2021/07/13 12:29:17;;;;;;;11.02;5.97;;;;;;;;;;4403741;32;20318;-56
2021/07/13 12:31:43;;;;;;;12.73;6.25;;;;;;;;;;4403208;32;20768;-56
2021/07/13 12:34:23;;;;;;;7.00;6.32;;;;;;;;;;4403598;32;20328;-56
2021/07/13 12:36:50;;;;;;;7.75;5.93;;;;;;;;;;4403789;32;20297;-55
2021/07/13 12:39:22;;;;;;;10.50;5.97;;;;;;;;;;4404531;32;20248;-55
2021/07/13 12:42:10;;;;;;;6.28;5.68;;;;;;;;;;4404011;32;20328;-56
2021/07/13 12:44:47;;;;;;;9.98;6.18;;;;;;;;;;4402535;32;20917;-55
2021/07/13 12:47:15;;;;;;;6.97;5.57;;;;;;;;;;4403070;32;20475;-55
2021/07/13 12:49:43;;;;;;;8.02;5.80;;;;;;;;;;4402985;32;20280;-56
2021/07/13 12:52:12;;;;;;;6.35;5.62;;;;;;;;;;4401522;32;20230;-55
2021/07/13 12:55:01;;;;;;;9.30;6.75;;;;;;;;;;4403456;32;20712;-55
2021/07/13 12:57:34;;;;;;;9.52;7.28;;;;;;;;;;4402472;32;20711;-56
2021/07/13 13:00:28;;;;;;;11.60;5.90;;;;;;;;;;4402957;32;20382;-55
2021/07/13 13:03:06;;;;;;;8.27;6.22;;;;;;;;;;4402404;32;20229;-55
2021/07/13 13:05:37;;;;;;;6.62;5.53;;;;;;;;;;4401579;32;20249;-56
2021/07/13 13:08:05;;;;;;;6.93;6.20;;;;;;;;;;4401948;32;20267;-54
2021/07/13 13:10:32;;;;;;;10.90;6.90;;;;;;;;;;4401776;32;20343;-55
2021/07/13 13:12:57;;;;;;;6.87;5.95;;;;;;;;;;4400878;32;20236;-55
2021/07/13 13:15:27;;;;;;;6.68;6.00;;;;;;;;;;4403105;32;20197;-56
2021/07/13 13:17:53;;;;;;;6.32;5.55;;;;;;;;;;4403238;32;20208;-54
2021/07/13 13:20:20;;;;;;;8.73;5.10;;;;;;;;;;4403312;32;20197;-56
2021/07/13 13:22:48;;;;;;;5.95;5.35;;;;;;;;;;4402992;32;20214;-56
2021/07/13 13:25:13;;;;;;;6.15;5.25;;;;;;;;;;4403078;32;20213;-56
2021/07/13 13:27:39;;;;;;;8.95;6.25;;;;;;;;;;4402370;32;20264;-56
2021/07/13 13:30:06;;;;;;;5.62;5.03;;;;;;;;;;4402818;32;20376;-55
2021/07/13 13:32:31;;;;;;;7.57;6.03;;;;;;;;;;4402985;32;20284;-54
2021/07/13 13:34:57;;;;;;;8.93;6.57;;;;;;;;;;4402773;32;20316;-55
2021/07/13 13:37:24;;;;;;;12.90;6.03;;;;;;;;;;4402657;32;20243;-56
2021/07/13 13:39:49;;;;;;;8.95;6.12;;;;;;;;;;4402613;32;20312;-56
2021/07/13 13:42:15;;;;;;;7.57;5.72;;;;;;;;;;4402719;32;20234;-54
2021/07/13 13:44:40;;;;;;;7.75;6.30;;;;;;;;;;4402769;32;20313;-55
2021/07/13 13:47:06;;;;;;;6.12;5.47;;;;;;;;;;4402380;32;20217;-56
2021/07/13 13:49:32;;;;;;;8.57;6.05;;;;;;;;;;4399245;32;20245;-56
2021/07/13 13:51:58;;;;;;;8.02;5.62;;;;;;;;;;4401761;32;20604;-55
2021/07/13 13:54:23;;;;;;;7.35;6.45;;;;;;;;;;4401033;32;20213;-55
2021/07/13 13:56:49;;;;;;;7.93;6.10;;;;;;;;;;4402529;32;20251;-57
2021/07/13 13:59:14;;;;;;;9.80;5.72;;;;;;;;;;4402873;32;20620;-57
2021/07/13 14:01:39;;;;;;;8.23;5.75;;;;;;;;;;4402764;32;20202;-57
2021/07/13 14:04:05;;;;;;;6.95;5.60;;;;;;;;;;4402454;32;20515;-57
2021/07/13 14:06:30;;;;;;;11.68;6.35;;;;;;;;;;4403017;32;20225;-56
2021/07/13 14:08:56;;;;;;;7.05;6.35;;;;;;;;;;4402964;32;20244;-57
2021/07/13 14:11:22;;;;;;;6.00;5.35;;;;;;;;;;4402945;32;20245;-57
2021/07/13 14:13:48;;;;;;;7.43;5.93;;;;;;;;;;4391487;32;20717;-56
2021/07/13 14:16:14;;;;;;;8.75;7.18;;;;;;;;;;4387928;32;20264;-56
2021/07/13 14:18:40;;;;;;;6.10;5.60;;;;;;;;;;4387333;32;20209;-56
2021/07/13 14:21:07;;;;;;;8.02;6.05;;;;;;;;;;4387589;32;20202;-56
2021/07/13 14:23:32;;;;;;;10.02;5.87;;;;;;;;;;4388227;32;20599;-57
2021/07/13 14:25:58;;;;;;;7.93;6.78;;;;;;;;;;4401364;32;20835;-56
2021/07/13 14:28:23;;;;;;;9.05;6.90;;;;;;;;;;4400959;32;20244;-56
2021/07/13 14:30:49;;;;;;;6.60;5.97;;;;;;;;;;4400648;32;20237;-56
2021/07/13 14:33:15;;;;;;;7.40;6.20;;;;;;;;;;4402540;32;20252;-57
2021/07/13 14:35:40;;;;;;;6.97;6.28;;;;;;;;;;4401105;32;20239;-57
2021/07/13 14:38:06;;;;;;;10.27;5.97;;;;;;;;;;4402068;32;20201;-56
2021/07/13 14:40:33;;;;;;;9.05;6.22;;;;;;;;;;4402213;32;20303;-57
2021/07/13 14:43:00;;;;;;;8.88;6.57;;;;;;;;;;4401916;32;20316;-57
2021/07/13 14:45:27;;;;;;;6.70;5.70;;;;;;;;;;4402640;32;20691;-56
2021/07/13 14:47:52;;;;;;;6.07;5.47;;;;;;;;;;4400624;32;20375;-55
2021/07/13 14:50:18;;;;;;;7.18;6.10;;;;;;;;;;4401562;32;20817;-56